createdAt,value
2024-02-10T00:00:21.814Z,83.70
2024-02-10T00:03:11.278Z,82.90
2024-02-10T00:05:44.345Z,85.60
2024-02-10T00:08:12.958Z,72.30
2024-02-10T00:10:42.911Z,40.70
2024-02-10T00:13:12.422Z,41.50
2024-02-10T00:15:42.137Z,72.90
2024-02-10T00:18:11.877Z,86.00
2024-02-10T00:20:41.336Z,93.60
2024-02-10T00:25:39.467Z,88.00
2024-02-10T00:28:08.941Z,76.20
2024-02-10T00:30:37.799Z,66.60
2024-02-10T00:33:09.344Z,53.80
2024-02-10T00:35:38.076Z,47.90
2024-02-10T00:38:06.656Z,70.40
2024-02-10T00:40:35.071Z,76.30
2024-02-10T00:43:05.675Z,80.90
2024-02-10T00:45:33.837Z,84.80
2024-02-10T00:48:03.752Z,45.00
2024-02-10T00:50:32.066Z,55.90
2024-02-10T00:53:01.159Z,62.90
2024-02-10T00:58:06.032Z,72.00
2024-02-10T01:00:35.590Z,67.20
2024-02-10T01:03:10.396Z,79.10
2024-02-10T01:05:39.480Z,73.60
2024-02-10T01:08:07.973Z,83.10
2024-02-10T01:10:36.892Z,81.70
2024-02-10T01:13:05.442Z,68.40
2024-02-10T01:15:34.568Z,75.10
2024-02-10T01:18:05.152Z,70.80
2024-02-10T01:20:33.588Z,76.40
2024-02-10T01:23:01.959Z,84.00
2024-02-10T01:25:32.130Z,78.00
2024-02-10T01:28:02.834Z,80.20
2024-02-10T01:30:31.419Z,76.00
2024-02-10T01:33:00.486Z,77.50
2024-02-10T01:35:29.300Z,76.90
2024-02-10T01:37:57.761Z,72.70
2024-02-10T01:40:26.627Z,66.40
2024-02-10T01:42:56.671Z,65.80
2024-02-10T01:45:24.931Z,71.70
2024-02-10T01:47:53.588Z,85.00
2024-02-10T01:50:22.118Z,78.10
2024-02-10T01:52:50.937Z,80.90
2024-02-10T01:55:20.306Z,77.90
2024-02-10T01:57:55.937Z,71.00
2024-02-10T02:00:26.980Z,77.50
2024-02-10T02:03:00.892Z,78.90
2024-02-10T02:05:34.456Z,78.80
2024-02-10T02:08:03.935Z,76.20
2024-02-10T02:13:04.700Z,73.00
2024-02-10T02:18:01.777Z,75.20
2024-02-10T02:20:31.007Z,74.20
2024-02-10T02:23:01.901Z,77.40
2024-02-10T02:25:31.598Z,82.80
2024-02-10T02:27:59.958Z,50.00
2024-02-10T02:30:28.948Z,67.60
2024-02-10T02:32:57.725Z,69.50
2024-02-10T02:35:27.375Z,65.60
2024-02-10T02:38:00.449Z,47.00
2024-02-10T02:40:28.963Z,45.60
2024-02-10T02:43:00.873Z,67.80
2024-02-10T02:45:29.342Z,75.10
2024-02-10T02:48:05.170Z,75.90
2024-02-10T02:50:35.956Z,76.60
2024-02-10T02:53:04.592Z,73.80
2024-02-10T02:55:34.319Z,72.80
2024-02-10T02:58:10.524Z,76.10
2024-02-10T03:00:40.269Z,75.40
2024-02-10T03:03:09.034Z,67.10
2024-02-10T03:05:37.846Z,68.60
2024-02-10T03:08:08.572Z,75.80
2024-02-10T03:10:37.558Z,77.60
2024-02-10T03:13:06.148Z,92.70
2024-02-10T03:15:39.477Z,78.90
2024-02-10T03:18:09.537Z,81.40
2024-02-10T03:20:37.861Z,47.40
2024-02-10T03:23:08.592Z,56.80
2024-02-10T03:25:37.330Z,61.50
2024-02-10T03:28:05.932Z,79.90
2024-02-10T03:30:34.812Z,75.60
2024-02-10T03:33:03.893Z,91.10
2024-02-10T03:35:34.388Z,73.20
2024-02-10T03:38:03.406Z,45.50
2024-02-10T03:40:31.918Z,75.40
2024-02-10T03:43:00.287Z,61.10
2024-02-10T03:45:34.953Z,69.80
2024-02-10T03:48:05.196Z,79.10
2024-02-10T03:50:33.757Z,78.00
2024-02-10T03:53:02.212Z,79.70
2024-02-10T03:55:31.565Z,79.70
2024-02-10T03:58:00.886Z,94.10
2024-02-10T04:00:32.493Z,87.60
2024-02-10T04:03:01.068Z,87.70
2024-02-10T04:05:35.743Z,88.50
2024-02-10T04:08:04.421Z,92.40
2024-02-10T04:10:33.028Z,95.20
2024-02-10T04:13:03.802Z,82.20
2024-02-10T04:15:33.374Z,80.70
2024-02-10T04:18:03.456Z,79.30
2024-02-10T04:20:31.935Z,85.70
2024-02-10T04:23:01.224Z,75.30
2024-02-10T04:25:32.557Z,76.40
2024-02-10T04:28:03.970Z,80.20
2024-02-10T04:30:32.937Z,79.90
2024-02-10T04:33:01.395Z,91.60
2024-02-10T04:35:30.111Z,91.30
2024-02-10T04:38:01.876Z,87.70
2024-02-10T04:40:30.987Z,86.80
2024-02-10T04:45:32.383Z,80.80
2024-02-10T04:48:05.633Z,83.60
2024-02-10T04:50:33.860Z,78.90
2024-02-10T04:53:08.451Z,88.90
2024-02-10T04:55:37.974Z,91.50
2024-02-10T04:58:06.132Z,82.70
2024-02-10T05:00:34.553Z,80.40
2024-02-10T05:03:04.264Z,85.20
2024-02-10T05:05:33.710Z,77.50
2024-02-10T05:08:02.481Z,81.20
2024-02-10T05:10:30.929Z,79.70
2024-02-10T05:12:59.432Z,89.80
2024-02-10T05:15:28.321Z,86.40
2024-02-10T05:17:56.515Z,85.90
2024-02-10T05:20:28.500Z,87.70
2024-02-10T05:23:00.506Z,95.10
2024-02-10T05:25:29.826Z,86.70
2024-02-10T05:28:01.832Z,93.20
2024-02-10T05:30:30.731Z,90.80
2024-02-10T05:33:03.630Z,89.50
2024-02-10T05:35:33.521Z,97.00
2024-02-10T05:38:05.888Z,95.10
2024-02-10T05:40:34.559Z,93.80
2024-02-10T05:43:07.442Z,90.70
2024-02-10T05:45:36.876Z,95.10
2024-02-10T05:50:34.541Z,85.70
2024-02-10T05:53:03.162Z,90.30
2024-02-10T05:55:31.609Z,93.20
2024-02-10T05:58:03.904Z,93.50
2024-02-10T06:00:33.874Z,105.00
2024-02-10T06:03:06.142Z,92.40
2024-02-10T06:05:35.077Z,95.70
2024-02-10T06:08:04.934Z,85.10
2024-02-10T06:10:33.682Z,76.20
2024-02-10T06:13:01.880Z,78.70
2024-02-10T06:15:31.496Z,78.90
2024-02-10T06:18:05.264Z,54.90
2024-02-10T06:20:33.873Z,53.80
2024-02-10T06:23:02.592Z,74.60
2024-02-10T06:25:31.293Z,83.40
2024-02-10T06:28:01.990Z,86.30
2024-02-10T06:30:34.879Z,86.50
2024-02-10T06:33:07.159Z,109.00
2024-02-10T06:35:38.047Z,130.20
2024-02-10T06:38:09.442Z,97.10
2024-02-10T06:40:39.908Z,92.40
2024-02-10T06:43:13.370Z,88.90
2024-02-10T06:45:42.311Z,85.90
2024-02-10T06:48:13.464Z,93.70
2024-02-10T06:50:46.577Z,91.80
2024-02-10T06:53:15.995Z,96.40
2024-02-10T06:55:44.208Z,90.50
2024-02-10T06:58:13.178Z,92.80
2024-02-10T07:00:42.157Z,87.90
2024-02-10T07:03:10.867Z,89.10
2024-02-10T07:05:41.258Z,78.90
2024-02-10T07:08:12.771Z,84.80
2024-02-10T07:10:41.652Z,87.00
2024-02-10T07:13:10.132Z,90.40
2024-02-10T07:15:38.633Z,83.80
2024-02-10T07:18:08.835Z,79.50
2024-02-10T07:20:37.406Z,82.20
2024-02-10T07:23:06.458Z,79.40
2024-02-10T07:25:40.439Z,75.60
2024-02-10T07:28:10.811Z,75.80
2024-02-10T07:30:39.207Z,71.90
2024-02-10T07:33:12.215Z,71.80
2024-02-10T07:35:45.133Z,74.40
2024-02-10T07:38:13.601Z,73.30
2024-02-10T07:40:42.268Z,72.30
2024-02-10T07:43:14.953Z,69.50
2024-02-10T07:45:44.503Z,73.10
2024-02-10T07:48:13.345Z,70.20
2024-02-10T07:50:43.265Z,67.10
2024-02-10T07:53:16.131Z,71.90
2024-02-10T07:55:48.541Z,63.10
2024-02-10T07:58:17.854Z,63.60
2024-02-10T08:00:48.538Z,64.40
2024-02-10T08:03:17.265Z,63.30
2024-02-10T08:05:52.808Z,57.90
2024-02-10T08:08:25.612Z,59.30
2024-02-10T08:10:54.671Z,57.20
2024-02-10T08:13:26.292Z,51.10
2024-02-10T08:15:56.396Z,41.20
2024-02-10T08:18:25.597Z,44.70
2024-02-10T08:20:54.531Z,53.10
2024-02-10T08:23:25.120Z,55.30
2024-02-10T08:25:56.352Z,52.50
2024-02-10T08:28:25.146Z,48.30
2024-02-10T08:30:54.832Z,51.20
2024-02-10T08:33:23.117Z,53.30
2024-02-10T08:35:52.246Z,51.60
2024-02-10T08:40:51.645Z,55.30
2024-02-10T08:43:20.275Z,52.20
2024-02-10T08:45:48.675Z,53.10
2024-02-10T08:48:18.455Z,49.00
2024-02-10T08:50:48.967Z,51.40
2024-02-10T08:53:18.430Z,48.80
2024-02-10T08:55:47.111Z,41.30
2024-02-10T08:58:17.199Z,35.00
2024-02-10T09:00:47.366Z,36.40
2024-02-10T09:03:16.486Z,30.60
2024-02-10T09:05:47.111Z,32.00
2024-02-10T09:08:17.901Z,30.50
2024-02-10T09:10:46.902Z,32.40
2024-02-10T09:13:15.259Z,43.80
2024-02-10T09:15:43.543Z,30.10
2024-02-10T09:18:13.308Z,35.70
2024-02-10T09:20:42.051Z,38.20
2024-02-10T09:23:10.516Z,31.00
2024-02-10T09:25:40.003Z,54.80
2024-02-10T09:28:08.725Z,27.60
2024-02-10T09:30:37.337Z,25.00
2024-02-10T09:33:20.106Z,28.10
2024-02-10T09:35:53.354Z,25.60
2024-02-10T09:38:23.876Z,24.50
2024-02-10T09:40:59.297Z,21.70
2024-02-10T09:43:36.761Z,18.00
2024-02-10T09:46:09.853Z,19.60
2024-02-10T09:48:48.529Z,19.40
2024-02-10T09:51:17.947Z,24.10
2024-02-10T09:53:46.201Z,17.30
2024-02-10T09:56:15.770Z,17.80
2024-02-10T09:58:48.097Z,21.50
2024-02-10T10:01:16.664Z,19.40
2024-02-10T10:03:45.018Z,14.70
2024-02-10T10:06:16.404Z,17.20
2024-02-10T10:08:44.615Z,13.60
2024-02-10T10:11:12.887Z,15.20
2024-02-10T10:13:41.397Z,14.30
2024-02-10T10:16:11.726Z,14.60
2024-02-10T10:18:41.376Z,13.50
2024-02-10T10:21:12.467Z,11.10
2024-02-10T10:23:41.038Z,11.50
2024-02-10T10:26:11.364Z,9.80
2024-02-10T10:28:42.944Z,13.50
2024-02-10T10:31:15.695Z,17.80
2024-02-10T10:33:49.635Z,18.00
2024-02-10T10:36:18.638Z,8.40
2024-02-10T10:41:20.402Z,8.70
2024-02-10T10:43:52.278Z,8.40
2024-02-10T10:46:22.352Z,12.90
2024-02-10T10:48:51.148Z,19.30
2024-02-10T10:51:19.830Z,18.10
2024-02-10T10:53:49.606Z,15.20
2024-02-10T10:56:25.232Z,14.90
2024-02-10T10:58:59.481Z,13.20
2024-02-10T11:01:30.524Z,16.00
2024-02-10T11:04:03.640Z,15.00
2024-02-10T11:06:34.694Z,19.00
2024-02-10T11:09:06.064Z,12.70
2024-02-10T11:11:40.523Z,14.50
2024-02-10T11:14:12.041Z,15.30
2024-02-10T11:16:44.440Z,13.00
2024-02-10T11:19:17.412Z,14.60
2024-02-10T11:21:48.068Z,13.80
2024-02-10T11:24:18.347Z,17.60
2024-02-10T11:26:47.671Z,13.80
2024-02-10T11:29:20.440Z,11.70
2024-02-10T11:31:49.881Z,11.90
2024-02-10T11:34:19.521Z,15.60
2024-02-10T11:36:52.382Z,9.80
2024-02-10T11:39:25.713Z,9.50
2024-02-10T11:42:02.142Z,8.10
2024-02-10T11:44:31.493Z,7.40
2024-02-10T11:47:03.750Z,9.80
2024-02-10T11:49:32.709Z,6.30
2024-02-10T11:52:02.592Z,11.00
2024-02-10T11:54:31.661Z,8.80
2024-02-10T11:57:04.487Z,8.90
2024-02-10T11:59:36.904Z,7.10
2024-02-10T12:02:12.726Z,8.40
2024-02-10T12:04:43.327Z,7.70
2024-02-10T12:07:13.824Z,8.90
2024-02-10T12:09:42.260Z,9.40
2024-02-10T12:12:13.915Z,9.30
2024-02-10T12:14:42.357Z,6.90
2024-02-10T12:17:10.590Z,10.80
2024-02-10T12:19:42.137Z,7.90
2024-02-10T12:22:11.511Z,8.90
2024-02-10T12:24:41.755Z,9.80
2024-02-10T12:27:10.330Z,7.10
2024-02-10T12:29:39.839Z,7.10
2024-02-10T12:32:12.468Z,8.20
2024-02-10T12:34:41.430Z,7.60
2024-02-10T12:37:12.637Z,10.00
2024-02-10T12:39:41.146Z,8.30
2024-02-10T12:42:11.369Z,12.70
2024-02-10T12:44:40.165Z,9.70
2024-02-10T12:49:45.145Z,9.20
2024-02-10T12:52:17.879Z,14.00
2024-02-10T12:54:46.036Z,9.70
2024-02-10T12:57:14.392Z,11.60
2024-02-10T12:59:45.133Z,8.50
2024-02-10T13:02:13.553Z,5.90
2024-02-10T13:04:46.652Z,5.20
2024-02-10T13:07:15.902Z,6.70
2024-02-10T13:17:10.382Z,5.60
2024-02-10T13:19:40.273Z,13.30
2024-02-10T13:22:12.655Z,6.00
2024-02-10T13:24:40.995Z,5.70
2024-02-10T13:27:09.428Z,10.50
2024-02-10T13:29:38.653Z,86.50
2024-02-10T13:32:07.079Z,49.50
2024-02-10T13:34:45.196Z,11.00
2024-02-10T13:37:43.557Z,32.30
2024-02-10T13:40:30.632Z,21.70
2024-02-10T13:43:18.996Z,14.60
2024-02-10T13:46:06.450Z,8.50
2024-02-10T13:48:55.150Z,10.60
2024-02-10T13:51:43.606Z,11.20
2024-02-10T13:54:30.492Z,9.70
2024-02-10T13:57:17.777Z,9.30
2024-02-10T13:59:46.101Z,12.50
2024-02-10T14:02:14.443Z,9.80
2024-02-10T14:04:49.102Z,22.00
2024-02-10T14:07:30.733Z,19.40
2024-02-10T14:10:12.502Z,24.20
2024-02-10T14:12:42.174Z,11.70
2024-02-10T14:15:17.741Z,10.90
2024-02-10T14:17:49.431Z,10.50
2024-02-10T14:20:21.001Z,15.20
2024-02-10T14:22:51.193Z,15.90
2024-02-10T14:25:25.496Z,16.30
2024-02-10T14:28:00.040Z,18.40
2024-02-10T14:30:44.164Z,18.00
2024-02-10T14:33:17.407Z,11.70
2024-02-10T14:36:14.941Z,10.00
2024-02-10T14:39:15.623Z,8.90
2024-02-10T14:41:45.100Z,10.80
2024-02-10T14:44:13.718Z,10.50
2024-02-10T14:46:44.767Z,6.80
2024-02-10T14:49:16.900Z,13.50
2024-02-10T14:51:45.531Z,10.40
2024-02-10T14:54:16.335Z,10.70
2024-02-10T14:56:47.520Z,9.60
2024-02-10T14:59:17.002Z,8.90
2024-02-10T15:01:45.324Z,9.90
2024-02-10T15:04:13.446Z,12.20
2024-02-10T15:06:42.443Z,16.10
2024-02-10T15:09:11.464Z,39.00
2024-02-10T15:11:41.169Z,38.10
2024-02-10T15:14:10.699Z,22.70
2024-02-10T15:16:40.944Z,36.10
2024-02-10T15:19:09.067Z,19.00
2024-02-10T15:21:37.537Z,20.50
2024-02-10T15:24:12.081Z,17.70
2024-02-10T15:26:42.812Z,18.50
2024-02-10T15:29:12.426Z,20.80
2024-02-10T15:31:40.885Z,14.10
2024-02-10T15:34:09.198Z,13.40
2024-02-10T15:36:40.218Z,12.60
2024-02-10T15:39:11.560Z,12.90
2024-02-10T15:41:40.489Z,10.70
2024-02-10T15:44:10.286Z,11.90
2024-02-10T15:46:42.351Z,10.80
2024-02-10T15:49:12.052Z,12.00
2024-02-10T15:54:11.579Z,9.80
2024-02-10T15:56:44.818Z,16.20
2024-02-10T15:59:14.752Z,13.50
2024-02-10T16:01:47.545Z,13.00
2024-02-10T16:04:16.424Z,13.60
2024-02-10T16:06:51.089Z,9.90
2024-02-10T16:09:19.334Z,11.10
2024-02-10T16:11:47.660Z,12.50
2024-02-10T16:14:16.088Z,10.40
2024-02-10T16:16:45.318Z,10.60
2024-02-10T16:19:14.661Z,9.70
2024-02-10T16:21:43.924Z,10.80
2024-02-10T16:24:12.413Z,10.70
2024-02-10T16:26:41.777Z,12.90
2024-02-10T16:29:13.142Z,14.30
2024-02-10T16:31:45.245Z,10.30
2024-02-10T16:34:13.551Z,21.90
2024-02-10T16:36:44.059Z,41.10
2024-02-10T16:39:12.429Z,17.20
2024-02-10T16:41:41.177Z,17.00
2024-02-10T16:44:10.877Z,14.60
2024-02-10T16:46:46.487Z,14.90
2024-02-10T16:49:16.307Z,17.40
2024-02-10T16:51:46.042Z,13.10
2024-02-10T16:54:14.430Z,22.70
2024-02-10T16:56:43.135Z,24.20
2024-02-10T17:01:40.176Z,14.70
2024-02-10T17:04:13.363Z,14.30
2024-02-10T17:06:41.850Z,13.40
2024-02-10T17:09:14.244Z,16.40
2024-02-10T17:11:42.598Z,12.40
2024-02-10T17:14:11.013Z,14.50
2024-02-10T17:16:40.502Z,11.30
2024-02-10T17:19:12.174Z,11.70
2024-02-10T17:21:42.461Z,10.90
2024-02-10T17:24:10.881Z,14.60
2024-02-10T17:26:39.439Z,17.30
2024-02-10T17:29:12.107Z,18.90
2024-02-10T17:31:40.997Z,14.00
2024-02-10T17:34:09.410Z,13.90
2024-02-10T17:36:38.300Z,13.30
2024-02-10T17:41:38.354Z,22.10
2024-02-10T17:44:06.933Z,11.00
2024-02-10T17:46:35.982Z,16.60
2024-02-10T17:49:10.998Z,21.40
2024-02-10T17:51:39.328Z,17.10
2024-02-10T17:54:08.367Z,17.40
2024-02-10T17:56:38.197Z,14.20
2024-02-10T17:59:06.721Z,13.90
2024-02-10T18:01:35.412Z,21.30
2024-02-10T18:04:05.668Z,18.70
2024-02-10T18:06:33.973Z,19.20
2024-02-10T18:09:02.457Z,20.70
2024-02-10T18:11:30.672Z,19.60
2024-02-10T18:13:58.826Z,20.90
2024-02-10T18:16:28.421Z,15.50
2024-02-10T18:18:56.980Z,20.20
2024-02-10T18:21:25.739Z,23.40
2024-02-10T18:23:54.473Z,22.60
2024-02-10T18:26:24.772Z,24.20
2024-02-10T18:28:54.303Z,22.60
2024-02-10T18:33:51.170Z,25.30
2024-02-10T18:36:19.589Z,21.50
2024-02-10T18:38:48.591Z,22.70
2024-02-10T18:43:46.993Z,21.00
2024-02-10T18:46:15.536Z,16.00
2024-02-10T18:48:47.954Z,17.60
2024-02-10T18:51:19.051Z,17.10
2024-02-10T18:53:50.611Z,14.90
2024-02-10T18:56:23.325Z,16.40
2024-02-10T18:58:56.278Z,15.90
2024-02-10T19:01:28.141Z,20.80
2024-02-10T19:03:57.982Z,20.30
2024-02-10T19:06:26.875Z,24.70
2024-02-10T19:08:56.277Z,23.20
2024-02-10T19:11:25.548Z,20.10
2024-02-10T19:13:54.279Z,20.10
2024-02-10T19:16:22.772Z,18.40
2024-02-10T19:18:51.876Z,18.10
2024-02-10T19:21:23.461Z,19.20
2024-02-10T19:23:51.862Z,20.00
2024-02-10T19:26:21.137Z,18.90
2024-02-10T19:28:49.898Z,21.80
2024-02-10T19:31:19.770Z,18.80
2024-02-10T19:33:48.885Z,16.80
2024-02-10T19:36:20.546Z,16.70
2024-02-10T19:38:49.095Z,21.20
2024-02-10T19:41:18.447Z,17.60
2024-02-10T19:43:47.061Z,20.20
2024-02-10T19:46:16.311Z,16.40
2024-02-10T19:48:48.855Z,20.50
2024-02-10T19:51:20.651Z,18.50
2024-02-10T19:53:52.300Z,21.50
2024-02-10T19:56:22.181Z,17.60
2024-02-10T19:58:51.955Z,18.30
2024-02-10T20:01:22.134Z,17.30
2024-02-10T20:03:53.299Z,21.40
2024-02-10T20:06:24.781Z,20.60
2024-02-10T20:08:54.365Z,16.10
2024-02-10T20:11:27.162Z,19.80
2024-02-10T20:13:57.195Z,19.90
2024-02-10T20:16:27.265Z,20.00
2024-02-10T20:18:56.399Z,21.80
2024-02-10T20:21:26.126Z,22.70
2024-02-10T20:23:57.641Z,20.20
2024-02-10T20:26:27.282Z,18.40
2024-02-10T20:28:56.178Z,21.90
2024-02-10T20:31:24.528Z,21.10
2024-02-10T20:33:57.179Z,21.00
2024-02-10T20:36:28.257Z,22.80
2024-02-10T20:39:01.742Z,25.50
2024-02-10T20:41:30.041Z,24.20
2024-02-10T20:44:02.591Z,19.10
2024-02-10T20:46:32.335Z,21.50
2024-02-10T20:49:01.348Z,26.70
2024-02-10T20:51:30.580Z,20.30
2024-02-10T20:54:00.462Z,19.50
2024-02-10T20:56:30.075Z,22.80
2024-02-10T20:58:58.519Z,27.10
2024-02-10T21:01:27.509Z,24.00
2024-02-10T21:03:56.122Z,23.80
2024-02-10T21:06:27.996Z,19.80
2024-02-10T21:08:56.956Z,28.80
2024-02-10T21:11:25.265Z,21.80
2024-02-10T21:13:53.606Z,26.20
2024-02-10T21:16:22.927Z,29.30
2024-02-10T21:18:52.999Z,21.90
2024-02-10T21:21:22.064Z,24.40
2024-02-10T21:23:50.876Z,22.40
2024-02-10T21:26:20.832Z,23.90
2024-02-10T21:28:49.355Z,23.30
2024-02-10T21:31:20.849Z,21.90
2024-02-10T21:33:49.290Z,22.20
2024-02-10T21:36:20.324Z,26.70
2024-02-10T21:38:48.990Z,24.20
2024-02-10T21:41:19.232Z,22.30
2024-02-10T21:43:47.592Z,21.80
2024-02-10T21:46:17.083Z,23.80
2024-02-10T21:48:45.449Z,23.10
2024-02-10T21:51:13.923Z,22.90
2024-02-10T21:53:42.685Z,21.90
2024-02-10T21:56:14.562Z,26.80
2024-02-10T21:58:44.013Z,24.90
2024-02-10T22:01:18.823Z,22.60
2024-02-10T22:03:47.640Z,26.50
2024-02-10T22:06:16.371Z,20.40
2024-02-10T22:08:45.216Z,22.80
2024-02-10T22:11:13.559Z,21.20
2024-02-10T22:13:43.160Z,26.30
2024-02-10T22:16:11.583Z,25.70
2024-02-10T22:18:39.781Z,23.90
2024-02-10T22:21:08.194Z,27.40
2024-02-10T22:23:36.815Z,27.30
2024-02-10T22:26:08.928Z,29.60
2024-02-10T22:28:41.390Z,28.90
2024-02-10T22:31:09.843Z,29.40
2024-02-10T22:33:38.101Z,26.10
2024-02-10T22:36:12.246Z,23.10
2024-02-10T22:38:41.339Z,24.50
2024-02-10T22:43:41.322Z,25.80
2024-02-10T22:46:10.148Z,37.80
2024-02-10T22:48:40.673Z,25.70
2024-02-10T22:51:12.263Z,32.30
2024-02-10T22:53:42.590Z,21.30
2024-02-10T22:56:12.612Z,26.50
2024-02-10T22:58:41.039Z,29.30
2024-02-10T23:01:09.705Z,28.80
2024-02-10T23:03:38.156Z,30.90
2024-02-10T23:06:06.634Z,43.10
2024-02-10T23:08:34.988Z,52.30
2024-02-10T23:11:03.641Z,37.30
2024-02-10T23:13:35.516Z,40.40
2024-02-10T23:16:12.144Z,36.20
2024-02-10T23:18:40.778Z,30.70
2024-02-10T23:21:11.139Z,36.50
2024-02-10T23:23:40.257Z,37.80
2024-02-10T23:26:12.321Z,27.40
2024-02-10T23:28:44.495Z,31.40
2024-02-10T23:31:12.872Z,25.90
2024-02-10T23:33:41.458Z,24.30
2024-02-10T23:36:22.703Z,26.70
2024-02-10T23:38:51.821Z,20.40
2024-02-10T23:41:20.384Z,23.30
2024-02-10T23:43:48.696Z,28.50
2024-02-10T23:46:18.350Z,23.30
2024-02-10T23:48:54.222Z,19.30
2024-02-10T23:51:23.539Z,19.20
2024-02-10T23:53:53.719Z,25.20
2024-02-10T23:56:23.122Z,28.70
2024-02-10T23:58:52.025Z,30.60
